sensor_id;sensor_type;location;lat;lon;timestamp;P1;durP1;ratioP1;P2;durP2;ratioP2
4895;SDS011;2463;49.948;8.472;2024-02-21T00:01:43;92.30;;;6.30;;
4895;SDS011;2463;49.948;8.472;2024-02-21T00:04:10;97.18;;;6.43;;
4895;SDS011;2463;49.948;8.472;2024-02-21T00:06:37;99.85;;;6.85;;
4895;SDS011;2463;49.948;8.472;2024-02-21T00:09:03;99.18;;;7.40;;
4895;SDS011;2463;49.948;8.472;2024-02-21T00:11:30;92.75;;;6.78;;
4895;SDS011;2463;49.948;8.472;2024-02-21T00:13:57;95.40;;;6.90;;
4895;SDS011;2463;49.948;8.472;2024-02-21T00:16:23;98.82;;;7.55;;
4895;SDS011;2463;49.948;8.472;2024-02-21T00:18:50;97.30;;;6.97;;
4895;SDS011;2463;49.948;8.472;2024-02-21T00:21:17;101.50;;;6.90;;
4895;SDS011;2463;49.948;8.472;2024-02-21T00:23:44;99.80;;;7.85;;
4895;SDS011;2463;49.948;8.472;2024-02-21T00:26:16;92.65;;;7.20;;
4895;SDS011;2463;49.948;8.472;2024-02-21T00:28:43;105.32;;;7.90;;
4895;SDS011;2463;49.948;8.472;2024-02-21T00:31:10;98.78;;;7.90;;
4895;SDS011;2463;49.948;8.472;2024-02-21T00:33:37;95.78;;;7.55;;
4895;SDS011;2463;49.948;8.472;2024-02-21T00:36:04;98.10;;;7.82;;
4895;SDS011;2463;49.948;8.472;2024-02-21T00:38:30;93.40;;;7.07;;
4895;SDS011;2463;49.948;8.472;2024-02-21T00:40:57;96.13;;;7.70;;
4895;SDS011;2463;49.948;8.472;2024-02-21T00:43:24;99.10;;;7.53;;
4895;SDS011;2463;49.948;8.472;2024-02-21T00:45:51;94.25;;;7.75;;
4895;SDS011;2463;49.948;8.472;2024-02-21T00:48:17;94.95;;;6.72;;
4895;SDS011;2463;49.948;8.472;2024-02-21T00:50:44;103.50;;;8.52;;
4895;SDS011;2463;49.948;8.472;2024-02-21T00:53:12;94.78;;;7.55;;
4895;SDS011;2463;49.948;8.472;2024-02-21T00:55:38;95.97;;;7.47;;
4895;SDS011;2463;49.948;8.472;2024-02-21T00:58:06;93.72;;;7.43;;
4895;SDS011;2463;49.948;8.472;2024-02-21T01:00:33;94.43;;;7.10;;
4895;SDS011;2463;49.948;8.472;2024-02-21T01:02:59;98.00;;;7.60;;
4895;SDS011;2463;49.948;8.472;2024-02-21T01:05:26;103.82;;;7.20;;
4895;SDS011;2463;49.948;8.472;2024-02-21T01:07:55;93.78;;;7.00;;
4895;SDS011;2463;49.948;8.472;2024-02-21T01:10:21;103.18;;;9.15;;
4895;SDS011;2463;49.948;8.472;2024-02-21T01:12:49;100.55;;;7.38;;
4895;SDS011;2463;49.948;8.472;2024-02-21T01:15:15;104.38;;;7.75;;
4895;SDS011;2463;49.948;8.472;2024-02-21T01:17:42;96.90;;;7.50;;
4895;SDS011;2463;49.948;8.472;2024-02-21T01:20:09;101.72;;;8.35;;
4895;SDS011;2463;49.948;8.472;2024-02-21T01:22:36;96.57;;;7.53;;
4895;SDS011;2463;49.948;8.472;2024-02-21T01:25:03;93.30;;;7.47;;
4895;SDS011;2463;49.948;8.472;2024-02-21T01:27:29;96.10;;;7.53;;
4895;SDS011;2463;49.948;8.472;2024-02-21T01:29:56;97.35;;;6.93;;
4895;SDS011;2463;49.948;8.472;2024-02-21T01:32:23;110.25;;;7.28;;
4895;SDS011;2463;49.948;8.472;2024-02-21T01:34:51;93.38;;;7.28;;
4895;SDS011;2463;49.948;8.472;2024-02-21T01:37:18;98.10;;;8.00;;
4895;SDS011;2463;49.948;8.472;2024-02-21T01:39:44;95.00;;;7.70;;
4895;SDS011;2463;49.948;8.472;2024-02-21T01:42:11;99.10;;;6.85;;
4895;SDS011;2463;49.948;8.472;2024-02-21T01:44:38;96.45;;;7.28;;
4895;SDS011;2463;49.948;8.472;2024-02-21T01:47:04;101.95;;;8.65;;
4895;SDS011;2463;49.948;8.472;2024-02-21T01:49:31;105.88;;;7.47;;
4895;SDS011;2463;49.948;8.472;2024-02-21T01:51:58;96.25;;;7.88;;
4895;SDS011;2463;49.948;8.472;2024-02-21T01:54:25;94.55;;;7.78;;
4895;SDS011;2463;49.948;8.472;2024-02-21T01:56:54;93.78;;;7.18;;
4895;SDS011;2463;49.948;8.472;2024-02-21T01:59:21;94.32;;;7.30;;
4895;SDS011;2463;49.948;8.472;2024-02-21T02:01:48;97.40;;;7.65;;
4895;SDS011;2463;49.948;8.472;2024-02-21T02:04:17;100.80;;;7.55;;
4895;SDS011;2463;49.948;8.472;2024-02-21T02:06:46;98.35;;;7.50;;
4895;SDS011;2463;49.948;8.472;2024-02-21T02:09:12;94.38;;;6.50;;
4895;SDS011;2463;49.948;8.472;2024-02-21T02:11:39;97.53;;;7.50;;
4895;SDS011;2463;49.948;8.472;2024-02-21T02:14:06;95.45;;;7.85;;
4895;SDS011;2463;49.948;8.472;2024-02-21T02:16:32;95.75;;;7.18;;
4895;SDS011;2463;49.948;8.472;2024-02-21T02:18:59;95.10;;;7.75;;
4895;SDS011;2463;49.948;8.472;2024-02-21T02:21:30;98.95;;;8.30;;
4895;SDS011;2463;49.948;8.472;2024-02-21T02:24:04;98.65;;;9.18;;
4895;SDS011;2463;49.948;8.472;2024-02-21T02:26:31;93.85;;;7.20;;
4895;SDS011;2463;49.948;8.472;2024-02-21T02:28:57;95.85;;;8.18;;
4895;SDS011;2463;49.948;8.472;2024-02-21T02:31:24;95.45;;;7.82;;
4895;SDS011;2463;49.948;8.472;2024-02-21T02:33:51;105.70;;;7.20;;
4895;SDS011;2463;49.948;8.472;2024-02-21T02:36:17;95.63;;;8.40;;
4895;SDS011;2463;49.948;8.472;2024-02-21T02:38:44;94.40;;;7.72;;
4895;SDS011;2463;49.948;8.472;2024-02-21T02:41:11;99.57;;;8.65;;
4895;SDS011;2463;49.948;8.472;2024-02-21T02:43:37;96.20;;;7.30;;
4895;SDS011;2463;49.948;8.472;2024-02-21T02:46:04;98.90;;;8.20;;
4895;SDS011;2463;49.948;8.472;2024-02-21T02:48:31;97.85;;;8.15;;
4895;SDS011;2463;49.948;8.472;2024-02-21T02:50:57;96.28;;;8.65;;
4895;SDS011;2463;49.948;8.472;2024-02-21T02:53:24;97.60;;;8.15;;
4895;SDS011;2463;49.948;8.472;2024-02-21T02:55:51;103.30;;;8.70;;
4895;SDS011;2463;49.948;8.472;2024-02-21T02:58:17;97.20;;;7.78;;
4895;SDS011;2463;49.948;8.472;2024-02-21T03:00:44;99.95;;;8.88;;
4895;SDS011;2463;49.948;8.472;2024-02-21T03:03:11;96.30;;;7.93;;
4895;SDS011;2463;49.948;8.472;2024-02-21T03:05:37;92.05;;;6.93;;
4895;SDS011;2463;49.948;8.472;2024-02-21T03:08:04;101.25;;;7.93;;
4895;SDS011;2463;49.948;8.472;2024-02-21T03:10:33;100.28;;;8.65;;
4895;SDS011;2463;49.948;8.472;2024-02-21T03:13:00;98.80;;;8.57;;
4895;SDS011;2463;49.948;8.472;2024-02-21T03:15:27;96.65;;;8.25;;
4895;SDS011;2463;49.948;8.472;2024-02-21T03:17:53;96.90;;;8.10;;
4895;SDS011;2463;49.948;8.472;2024-02-21T03:20:20;95.55;;;8.50;;
4895;SDS011;2463;49.948;8.472;2024-02-21T03:22:47;101.47;;;7.88;;
4895;SDS011;2463;49.948;8.472;2024-02-21T03:25:13;98.32;;;8.18;;
4895;SDS011;2463;49.948;8.472;2024-02-21T03:27:41;97.05;;;7.82;;
4895;SDS011;2463;49.948;8.472;2024-02-21T03:30:08;100.63;;;8.30;;
4895;SDS011;2463;49.948;8.472;2024-02-21T03:32:35;105.43;;;8.07;;
4895;SDS011;2463;49.948;8.472;2024-02-21T03:35:02;96.80;;;8.52;;
4895;SDS011;2463;49.948;8.472;2024-02-21T03:37:29;96.32;;;7.60;;
4895;SDS011;2463;49.948;8.472;2024-02-21T03:39:55;97.13;;;8.40;;
4895;SDS011;2463;49.948;8.472;2024-02-21T03:42:22;110.40;;;8.75;;
4895;SDS011;2463;49.948;8.472;2024-02-21T03:44:49;104.28;;;8.57;;
4895;SDS011;2463;49.948;8.472;2024-02-21T03:47:15;93.68;;;7.30;;
4895;SDS011;2463;49.948;8.472;2024-02-21T03:49:42;96.18;;;7.70;;
4895;SDS011;2463;49.948;8.472;2024-02-21T03:52:09;103.60;;;7.60;;
4895;SDS011;2463;49.948;8.472;2024-02-21T03:54:36;92.40;;;7.22;;
4895;SDS011;2463;49.948;8.472;2024-02-21T03:57:04;103.60;;;8.07;;
4895;SDS011;2463;49.948;8.472;2024-02-21T03:59:31;102.90;;;8.57;;
4895;SDS011;2463;49.948;8.472;2024-02-21T04:01:58;100.25;;;8.25;;
4895;SDS011;2463;49.948;8.472;2024-02-21T04:04:25;105.25;;;10.00;;
4895;SDS011;2463;49.948;8.472;2024-02-21T04:06:52;98.78;;;7.78;;
4895;SDS011;2463;49.948;8.472;2024-02-21T04:09:18;93.80;;;7.22;;
4895;SDS011;2463;49.948;8.472;2024-02-21T04:11:45;95.60;;;8.15;;
4895;SDS011;2463;49.948;8.472;2024-02-21T04:14:12;95.78;;;8.25;;
4895;SDS011;2463;49.948;8.472;2024-02-21T04:16:38;101.55;;;7.93;;
4895;SDS011;2463;49.948;8.472;2024-02-21T04:19:06;92.60;;;6.82;;
4895;SDS011;2463;49.948;8.472;2024-02-21T04:21:34;96.72;;;8.05;;
4895;SDS011;2463;49.948;8.472;2024-02-21T04:24:01;99.60;;;7.68;;
4895;SDS011;2463;49.948;8.472;2024-02-21T04:26:29;114.68;;;8.93;;
4895;SDS011;2463;49.948;8.472;2024-02-21T04:28:56;97.47;;;7.85;;
4895;SDS011;2463;49.948;8.472;2024-02-21T04:31:23;98.78;;;7.82;;
4895;SDS011;2463;49.948;8.472;2024-02-21T04:33:50;108.68;;;8.43;;
4895;SDS011;2463;49.948;8.472;2024-02-21T04:36:16;103.18;;;9.70;;
4895;SDS011;2463;49.948;8.472;2024-02-21T04:38:43;95.72;;;7.75;;
4895;SDS011;2463;49.948;8.472;2024-02-21T04:41:10;98.85;;;8.18;;
4895;SDS011;2463;49.948;8.472;2024-02-21T04:43:36;96.57;;;7.80;;
4895;SDS011;2463;49.948;8.472;2024-02-21T04:46:04;97.15;;;7.53;;
4895;SDS011;2463;49.948;8.472;2024-02-21T04:48:30;101.53;;;7.57;;
4895;SDS011;2463;49.948;8.472;2024-02-21T04:50:57;93.55;;;7.20;;
4895;SDS011;2463;49.948;8.472;2024-02-21T04:53:24;97.80;;;7.88;;
4895;SDS011;2463;49.948;8.472;2024-02-21T04:55:50;94.30;;;7.32;;
4895;SDS011;2463;49.948;8.472;2024-02-21T04:58:17;96.53;;;7.45;;
4895;SDS011;2463;49.948;8.472;2024-02-21T05:00:44;94.20;;;7.45;;
4895;SDS011;2463;49.948;8.472;2024-02-21T05:03:10;93.88;;;7.18;;
4895;SDS011;2463;49.948;8.472;2024-02-21T05:05:37;95.72;;;6.97;;
4895;SDS011;2463;49.948;8.472;2024-02-21T05:08:04;95.70;;;7.15;;
4895;SDS011;2463;49.948;8.472;2024-02-21T05:10:31;99.97;;;8.35;;
4895;SDS011;2463;49.948;8.472;2024-02-21T05:12:58;94.05;;;6.75;;
4895;SDS011;2463;49.948;8.472;2024-02-21T05:15:25;100.20;;;8.68;;
4895;SDS011;2463;49.948;8.472;2024-02-21T05:17:52;97.70;;;6.90;;
4895;SDS011;2463;49.948;8.472;2024-02-21T05:20:19;94.38;;;7.30;;
4895;SDS011;2463;49.948;8.472;2024-02-21T05:22:46;97.05;;;7.85;;
4895;SDS011;2463;49.948;8.472;2024-02-21T05:25:12;94.70;;;7.47;;
4895;SDS011;2463;49.948;8.472;2024-02-21T05:27:39;95.10;;;7.80;;
4895;SDS011;2463;49.948;8.472;2024-02-21T05:30:06;92.00;;;6.55;;
4895;SDS011;2463;49.948;8.472;2024-02-21T05:32:33;98.00;;;7.43;;
4895;SDS011;2463;49.948;8.472;2024-02-21T05:35:00;97.65;;;8.88;;
4895;SDS011;2463;49.948;8.472;2024-02-21T05:37:27;95.40;;;7.25;;
4895;SDS011;2463;49.948;8.472;2024-02-21T05:39:53;92.38;;;7.20;;
4895;SDS011;2463;49.948;8.472;2024-02-21T05:42:20;93.72;;;7.60;;
4895;SDS011;2463;49.948;8.472;2024-02-21T05:44:47;102.07;;;8.15;;
4895;SDS011;2463;49.948;8.472;2024-02-21T05:47:13;93.88;;;7.25;;
4895;SDS011;2463;49.948;8.472;2024-02-21T05:49:41;96.10;;;7.32;;
4895;SDS011;2463;49.948;8.472;2024-02-21T05:52:08;100.43;;;8.30;;
4895;SDS011;2463;49.948;8.472;2024-02-21T05:54:37;99.65;;;7.82;;
4895;SDS011;2463;49.948;8.472;2024-02-21T05:57:05;94.80;;;7.78;;
4895;SDS011;2463;49.948;8.472;2024-02-21T05:59:32;100.45;;;8.48;;
4895;SDS011;2463;49.948;8.472;2024-02-21T06:01:58;99.55;;;8.35;;
4895;SDS011;2463;49.948;8.472;2024-02-21T06:04:25;97.72;;;7.28;;
4895;SDS011;2463;49.948;8.472;2024-02-21T06:06:52;94.25;;;7.45;;
4895;SDS011;2463;49.948;8.472;2024-02-21T06:09:19;93.78;;;7.35;;
4895;SDS011;2463;49.948;8.472;2024-02-21T06:11:46;101.20;;;10.43;;
4895;SDS011;2463;49.948;8.472;2024-02-21T06:14:14;104.75;;;6.75;;
4895;SDS011;2463;49.948;8.472;2024-02-21T06:16:41;97.07;;;8.05;;
4895;SDS011;2463;49.948;8.472;2024-02-21T06:19:09;94.38;;;6.90;;
4895;SDS011;2463;49.948;8.472;2024-02-21T06:21:36;97.40;;;8.15;;
4895;SDS011;2463;49.948;8.472;2024-02-21T06:24:03;95.72;;;7.80;;
4895;SDS011;2463;49.948;8.472;2024-02-21T06:26:30;97.50;;;8.32;;
4895;SDS011;2463;49.948;8.472;2024-02-21T06:28:56;91.97;;;6.90;;
4895;SDS011;2463;49.948;8.472;2024-02-21T06:31:24;93.97;;;7.63;;
4895;SDS011;2463;49.948;8.472;2024-02-21T06:33:50;99.35;;;8.23;;
4895;SDS011;2463;49.948;8.472;2024-02-21T06:36:17;96.35;;;8.00;;
4895;SDS011;2463;49.948;8.472;2024-02-21T06:38:44;106.47;;;7.20;;
4895;SDS011;2463;49.948;8.472;2024-02-21T06:41:14;103.78;;;8.23;;
4895;SDS011;2463;49.948;8.472;2024-02-21T06:43:42;95.15;;;7.28;;
4895;SDS011;2463;49.948;8.472;2024-02-21T06:46:08;92.28;;;7.38;;
4895;SDS011;2463;49.948;8.472;2024-02-21T06:48:35;102.55;;;7.43;;
4895;SDS011;2463;49.948;8.472;2024-02-21T06:51:02;94.30;;;8.07;;
4895;SDS011;2463;49.948;8.472;2024-02-21T06:53:29;94.85;;;7.57;;
4895;SDS011;2463;49.948;8.472;2024-02-21T06:55:56;94.18;;;7.35;;
4895;SDS011;2463;49.948;8.472;2024-02-21T06:58:22;94.38;;;7.13;;
4895;SDS011;2463;49.948;8.472;2024-02-21T07:00:49;94.13;;;7.00;;
4895;SDS011;2463;49.948;8.472;2024-02-21T07:03:16;93.22;;;6.57;;
4895;SDS011;2463;49.948;8.472;2024-02-21T07:05:42;98.05;;;7.78;;
4895;SDS011;2463;49.948;8.472;2024-02-21T07:08:09;94.85;;;7.60;;
4895;SDS011;2463;49.948;8.472;2024-02-21T07:10:36;98.68;;;6.85;;
4895;SDS011;2463;49.948;8.472;2024-02-21T07:13:03;97.15;;;7.07;;
4895;SDS011;2463;49.948;8.472;2024-02-21T07:15:29;95.65;;;7.00;;
4895;SDS011;2463;49.948;8.472;2024-02-21T07:17:57;98.47;;;8.05;;
4895;SDS011;2463;49.948;8.472;2024-02-21T07:20:23;93.03;;;6.95;;
4895;SDS011;2463;49.948;8.472;2024-02-21T07:22:50;94.75;;;6.75;;
4895;SDS011;2463;49.948;8.472;2024-02-21T07:25:17;93.55;;;6.68;;
4895;SDS011;2463;49.948;8.472;2024-02-21T07:27:44;92.65;;;6.75;;
4895;SDS011;2463;49.948;8.472;2024-02-21T07:30:11;92.35;;;6.63;;
4895;SDS011;2463;49.948;8.472;2024-02-21T07:32:42;93.40;;;6.40;;
4895;SDS011;2463;49.948;8.472;2024-02-21T07:35:09;97.47;;;6.88;;
4895;SDS011;2463;49.948;8.472;2024-02-21T07:37:38;98.30;;;7.35;;
4895;SDS011;2463;49.948;8.472;2024-02-21T07:40:05;95.25;;;6.35;;
4895;SDS011;2463;49.948;8.472;2024-02-21T07:42:33;91.30;;;6.00;;
4895;SDS011;2463;49.948;8.472;2024-02-21T07:44:59;107.40;;;7.20;;
4895;SDS011;2463;49.948;8.472;2024-02-21T07:47:26;95.82;;;6.82;;
4895;SDS011;2463;49.948;8.472;2024-02-21T07:49:53;91.68;;;6.15;;
4895;SDS011;2463;49.948;8.472;2024-02-21T07:52:19;94.45;;;6.22;;
4895;SDS011;2463;49.948;8.472;2024-02-21T07:54:46;89.57;;;5.90;;
4895;SDS011;2463;49.948;8.472;2024-02-21T07:57:13;91.53;;;6.75;;
4895;SDS011;2463;49.948;8.472;2024-02-21T07:59:39;94.22;;;6.63;;
4895;SDS011;2463;49.948;8.472;2024-02-21T08:02:06;90.85;;;6.20;;
4895;SDS011;2463;49.948;8.472;2024-02-21T08:04:33;96.35;;;6.50;;
4895;SDS011;2463;49.948;8.472;2024-02-21T08:07:00;94.40;;;6.35;;
4895;SDS011;2463;49.948;8.472;2024-02-21T08:09:27;91.28;;;6.03;;
4895;SDS011;2463;49.948;8.472;2024-02-21T08:11:54;89.03;;;5.68;;
4895;SDS011;2463;49.948;8.472;2024-02-21T08:14:21;89.80;;;5.88;;
4895;SDS011;2463;49.948;8.472;2024-02-21T08:16:48;94.70;;;6.22;;
4895;SDS011;2463;49.948;8.472;2024-02-21T08:19:15;89.25;;;5.65;;
4895;SDS011;2463;49.948;8.472;2024-02-21T08:21:42;90.88;;;6.25;;
4895;SDS011;2463;49.948;8.472;2024-02-21T08:24:09;89.80;;;6.15;;
4895;SDS011;2463;49.948;8.472;2024-02-21T08:26:39;91.07;;;6.10;;
4895;SDS011;2463;49.948;8.472;2024-02-21T08:29:11;90.15;;;5.88;;
4895;SDS011;2463;49.948;8.472;2024-02-21T08:31:38;92.82;;;6.03;;
4895;SDS011;2463;49.948;8.472;2024-02-21T08:34:05;91.93;;;6.30;;
4895;SDS011;2463;49.948;8.472;2024-02-21T08:36:35;90.38;;;5.85;;
4895;SDS011;2463;49.948;8.472;2024-02-21T08:39:02;95.75;;;6.47;;
4895;SDS011;2463;49.948;8.472;2024-02-21T08:41:31;90.10;;;5.43;;
4895;SDS011;2463;49.948;8.472;2024-02-21T08:44:17;89.95;;;6.10;;
4895;SDS011;2463;49.948;8.472;2024-02-21T08:46:44;88.82;;;5.40;;
4895;SDS011;2463;49.948;8.472;2024-02-21T08:49:10;92.13;;;6.22;;
4895;SDS011;2463;49.948;8.472;2024-02-21T08:51:37;91.53;;;5.70;;
4895;SDS011;2463;49.948;8.472;2024-02-21T08:54:04;88.72;;;5.22;;
4895;SDS011;2463;49.948;8.472;2024-02-21T08:56:31;89.82;;;6.18;;
4895;SDS011;2463;49.948;8.472;2024-02-21T08:58:58;99.13;;;6.70;;
4895;SDS011;2463;49.948;8.472;2024-02-21T09:01:25;89.95;;;5.72;;
4895;SDS011;2463;49.948;8.472;2024-02-21T09:03:53;89.38;;;5.60;;
4895;SDS011;2463;49.948;8.472;2024-02-21T09:06:20;87.28;;;5.35;;
4895;SDS011;2463;49.948;8.472;2024-02-21T09:08:47;88.70;;;5.43;;
4895;SDS011;2463;49.948;8.472;2024-02-21T09:11:14;94.03;;;5.72;;
4895;SDS011;2463;49.948;8.472;2024-02-21T09:13:41;90.15;;;5.15;;
4895;SDS011;2463;49.948;8.472;2024-02-21T09:16:08;91.10;;;5.65;;
4895;SDS011;2463;49.948;8.472;2024-02-21T09:18:35;89.32;;;6.90;;
4895;SDS011;2463;49.948;8.472;2024-02-21T09:21:02;90.05;;;5.10;;
4895;SDS011;2463;49.948;8.472;2024-02-21T09:23:29;88.35;;;5.03;;
4895;SDS011;2463;49.948;8.472;2024-02-21T09:25:57;97.18;;;5.30;;
4895;SDS011;2463;49.948;8.472;2024-02-21T09:28:26;99.65;;;5.82;;
4895;SDS011;2463;49.948;8.472;2024-02-21T09:30:53;91.05;;;5.55;;
4895;SDS011;2463;49.948;8.472;2024-02-21T09:33:20;88.13;;;5.30;;
4895;SDS011;2463;49.948;8.472;2024-02-21T09:35:57;87.95;;;5.18;;
4895;SDS011;2463;49.948;8.472;2024-02-21T09:38:24;87.53;;;5.00;;
4895;SDS011;2463;49.948;8.472;2024-02-21T09:40:58;88.72;;;5.32;;
4895;SDS011;2463;49.948;8.472;2024-02-21T09:43:29;88.80;;;5.60;;
4895;SDS011;2463;49.948;8.472;2024-02-21T09:45:56;90.00;;;5.80;;
4895;SDS011;2463;49.948;8.472;2024-02-21T09:51:11;87.82;;;4.75;;
4895;SDS011;2463;49.948;8.472;2024-02-21T09:53:39;93.10;;;5.40;;
4895;SDS011;2463;49.948;8.472;2024-02-21T09:56:13;92.00;;;5.80;;
4895;SDS011;2463;49.948;8.472;2024-02-21T09:58:40;89.47;;;5.35;;
4895;SDS011;2463;49.948;8.472;2024-02-21T10:01:07;89.90;;;5.13;;
4895;SDS011;2463;49.948;8.472;2024-02-21T10:03:50;92.40;;;5.88;;
4895;SDS011;2463;49.948;8.472;2024-02-21T10:06:17;91.32;;;5.70;;
4895;SDS011;2463;49.948;8.472;2024-02-21T10:08:51;93.82;;;6.30;;
4895;SDS011;2463;49.948;8.472;2024-02-21T10:11:24;91.03;;;5.85;;
4895;SDS011;2463;49.948;8.472;2024-02-21T10:14:02;89.78;;;5.70;;
4895;SDS011;2463;49.948;8.472;2024-02-21T10:16:33;90.82;;;5.50;;
4895;SDS011;2463;49.948;8.472;2024-02-21T10:19:00;99.43;;;5.70;;
4895;SDS011;2463;49.948;8.472;2024-02-21T10:21:27;90.75;;;5.57;;
4895;SDS011;2463;49.948;8.472;2024-02-21T10:23:54;91.55;;;5.50;;
4895;SDS011;2463;49.948;8.472;2024-02-21T10:26:20;91.50;;;5.40;;
4895;SDS011;2463;49.948;8.472;2024-02-21T10:28:48;99.20;;;5.90;;
4895;SDS011;2463;49.948;8.472;2024-02-21T10:31:25;91.93;;;5.15;;
4895;SDS011;2463;49.948;8.472;2024-02-21T10:33:56;89.10;;;6.25;;
4895;SDS011;2463;49.948;8.472;2024-02-21T10:36:29;92.80;;;5.45;;
4895;SDS011;2463;49.948;8.472;2024-02-21T10:38:56;90.95;;;5.70;;
4895;SDS011;2463;49.948;8.472;2024-02-21T10:41:23;91.97;;;6.22;;
4895;SDS011;2463;49.948;8.472;2024-02-21T10:43:51;89.10;;;6.43;;
4895;SDS011;2463;49.948;8.472;2024-02-21T10:46:21;97.10;;;5.78;;
4895;SDS011;2463;49.948;8.472;2024-02-21T10:51:32;88.45;;;6.03;;
4895;SDS011;2463;49.948;8.472;2024-02-21T10:54:12;94.47;;;5.90;;
4895;SDS011;2463;49.948;8.472;2024-02-21T10:56:39;91.43;;;5.57;;
4895;SDS011;2463;49.948;8.472;2024-02-21T10:59:07;89.15;;;5.20;;
4895;SDS011;2463;49.948;8.472;2024-02-21T11:01:34;90.28;;;5.70;;
4895;SDS011;2463;49.948;8.472;2024-02-21T11:04:05;93.30;;;6.10;;
4895;SDS011;2463;49.948;8.472;2024-02-21T11:06:34;88.80;;;5.28;;
4895;SDS011;2463;49.948;8.472;2024-02-21T11:09:09;91.35;;;5.35;;
4895;SDS011;2463;49.948;8.472;2024-02-21T11:11:41;89.60;;;5.60;;
4895;SDS011;2463;49.948;8.472;2024-02-21T11:14:11;97.28;;;5.60;;
4895;SDS011;2463;49.948;8.472;2024-02-21T11:16:44;93.65;;;5.80;;
4895;SDS011;2463;49.948;8.472;2024-02-21T11:21:47;100.90;;;6.07;;
4895;SDS011;2463;49.948;8.472;2024-02-21T11:24:37;91.75;;;5.05;;
4895;SDS011;2463;49.948;8.472;2024-02-21T11:27:22;90.40;;;5.25;;
4895;SDS011;2463;49.948;8.472;2024-02-21T11:29:55;90.70;;;5.82;;
4895;SDS011;2463;49.948;8.472;2024-02-21T11:32:22;87.82;;;6.03;;
4895;SDS011;2463;49.948;8.472;2024-02-21T11:37:33;94.55;;;5.90;;
4895;SDS011;2463;49.948;8.472;2024-02-21T11:40:03;89.93;;;5.18;;
4895;SDS011;2463;49.948;8.472;2024-02-21T11:42:32;94.85;;;5.95;;
4895;SDS011;2463;49.948;8.472;2024-02-21T11:45:00;92.53;;;6.03;;
4895;SDS011;2463;49.948;8.472;2024-02-21T11:47:28;91.32;;;5.97;;
4895;SDS011;2463;49.948;8.472;2024-02-21T11:49:55;89.00;;;5.57;;
4895;SDS011;2463;49.948;8.472;2024-02-21T11:52:23;89.32;;;5.20;;
4895;SDS011;2463;49.948;8.472;2024-02-21T11:54:55;97.18;;;6.18;;
4895;SDS011;2463;49.948;8.472;2024-02-21T11:57:30;94.70;;;5.95;;
4895;SDS011;2463;49.948;8.472;2024-02-21T11:59:57;88.97;;;5.60;;
4895;SDS011;2463;49.948;8.472;2024-02-21T12:02:27;90.80;;;5.88;;
4895;SDS011;2463;49.948;8.472;2024-02-21T12:04:54;93.78;;;5.35;;
4895;SDS011;2463;49.948;8.472;2024-02-21T12:07:21;91.10;;;5.63;;
4895;SDS011;2463;49.948;8.472;2024-02-21T12:09:50;92.03;;;5.55;;
4895;SDS011;2463;49.948;8.472;2024-02-21T12:12:19;89.93;;;5.47;;
4895;SDS011;2463;49.948;8.472;2024-02-21T12:14:46;90.25;;;5.75;;
4895;SDS011;2463;49.948;8.472;2024-02-21T12:17:12;93.45;;;5.80;;
4895;SDS011;2463;49.948;8.472;2024-02-21T12:19:39;88.80;;;5.05;;
4895;SDS011;2463;49.948;8.472;2024-02-21T12:22:06;99.78;;;6.20;;
4895;SDS011;2463;49.948;8.472;2024-02-21T12:24:34;91.65;;;5.53;;
4895;SDS011;2463;49.948;8.472;2024-02-21T12:27:02;90.72;;;5.70;;
4895;SDS011;2463;49.948;8.472;2024-02-21T12:29:30;89.90;;;5.60;;
4895;SDS011;2463;49.948;8.472;2024-02-21T12:31:56;91.03;;;5.50;;
4895;SDS011;2463;49.948;8.472;2024-02-21T12:34:23;88.47;;;5.28;;
4895;SDS011;2463;49.948;8.472;2024-02-21T12:37:10;91.25;;;5.10;;
4895;SDS011;2463;49.948;8.472;2024-02-21T12:39:39;90.50;;;5.40;;
4895;SDS011;2463;49.948;8.472;2024-02-21T12:42:05;94.95;;;5.40;;
4895;SDS011;2463;49.948;8.472;2024-02-21T12:44:32;87.25;;;4.82;;
4895;SDS011;2463;49.948;8.472;2024-02-21T12:47:00;90.68;;;5.72;;
4895;SDS011;2463;49.948;8.472;2024-02-21T12:49:27;89.93;;;5.18;;
4895;SDS011;2463;49.948;8.472;2024-02-21T12:51:56;93.68;;;5.30;;
4895;SDS011;2463;49.948;8.472;2024-02-21T12:54:22;95.22;;;5.97;;
4895;SDS011;2463;49.948;8.472;2024-02-21T12:56:49;92.28;;;5.40;;
4895;SDS011;2463;49.948;8.472;2024-02-21T12:59:16;92.40;;;5.65;;
4895;SDS011;2463;49.948;8.472;2024-02-21T13:01:43;91.38;;;5.80;;
4895;SDS011;2463;49.948;8.472;2024-02-21T13:04:10;89.88;;;5.60;;
4895;SDS011;2463;49.948;8.472;2024-02-21T13:06:38;93.47;;;5.65;;
4895;SDS011;2463;49.948;8.472;2024-02-21T13:09:05;88.30;;;5.25;;
4895;SDS011;2463;49.948;8.472;2024-02-21T13:11:36;94.55;;;5.20;;
4895;SDS011;2463;49.948;8.472;2024-02-21T13:14:05;88.90;;;5.55;;
4895;SDS011;2463;49.948;8.472;2024-02-21T13:16:31;90.30;;;5.35;;
4895;SDS011;2463;49.948;8.472;2024-02-21T13:19:05;91.72;;;5.72;;
4895;SDS011;2463;49.948;8.472;2024-02-21T13:21:34;87.13;;;5.20;;
4895;SDS011;2463;49.948;8.472;2024-02-21T13:24:02;90.43;;;6.20;;
4895;SDS011;2463;49.948;8.472;2024-02-21T13:26:29;90.45;;;4.72;;
4895;SDS011;2463;49.948;8.472;2024-02-21T13:28:55;87.35;;;4.70;;
4895;SDS011;2463;49.948;8.472;2024-02-21T13:31:22;92.32;;;5.60;;
4895;SDS011;2463;49.948;8.472;2024-02-21T13:33:50;89.55;;;4.95;;
4895;SDS011;2463;49.948;8.472;2024-02-21T13:36:17;93.10;;;5.40;;
4895;SDS011;2463;49.948;8.472;2024-02-21T13:38:45;86.82;;;4.80;;
4895;SDS011;2463;49.948;8.472;2024-02-21T13:41:13;93.72;;;5.55;;
4895;SDS011;2463;49.948;8.472;2024-02-21T13:43:39;94.47;;;5.78;;
4895;SDS011;2463;49.948;8.472;2024-02-21T13:46:06;90.20;;;5.40;;
4895;SDS011;2463;49.948;8.472;2024-02-21T13:48:36;90.35;;;5.10;;
4895;SDS011;2463;49.948;8.472;2024-02-21T13:51:03;87.25;;;4.70;;
4895;SDS011;2463;49.948;8.472;2024-02-21T13:53:30;87.85;;;4.70;;
4895;SDS011;2463;49.948;8.472;2024-02-21T13:55:56;91.35;;;4.85;;
4895;SDS011;2463;49.948;8.472;2024-02-21T13:58:23;88.35;;;4.55;;
4895;SDS011;2463;49.948;8.472;2024-02-21T14:00:51;90.32;;;4.63;;
4895;SDS011;2463;49.948;8.472;2024-02-21T14:03:18;90.30;;;4.63;;
4895;SDS011;2463;49.948;8.472;2024-02-21T14:05:46;88.15;;;4.93;;
4895;SDS011;2463;49.948;8.472;2024-02-21T14:08:14;90.18;;;6.50;;
4895;SDS011;2463;49.948;8.472;2024-02-21T14:10:41;89.45;;;5.63;;
4895;SDS011;2463;49.948;8.472;2024-02-21T14:13:08;98.68;;;5.45;;
4895;SDS011;2463;49.948;8.472;2024-02-21T14:15:35;87.75;;;4.85;;
4895;SDS011;2463;49.948;8.472;2024-02-21T14:18:03;87.32;;;4.70;;
4895;SDS011;2463;49.948;8.472;2024-02-21T14:20:34;87.82;;;5.13;;
4895;SDS011;2463;49.948;8.472;2024-02-21T14:23:01;92.13;;;4.70;;
4895;SDS011;2463;49.948;8.472;2024-02-21T14:25:27;89.80;;;5.00;;
4895;SDS011;2463;49.948;8.472;2024-02-21T14:27:54;90.13;;;5.07;;
4895;SDS011;2463;49.948;8.472;2024-02-21T14:30:21;89.80;;;5.30;;
4895;SDS011;2463;49.948;8.472;2024-02-21T14:32:47;90.25;;;5.22;;
4895;SDS011;2463;49.948;8.472;2024-02-21T14:35:14;88.32;;;4.80;;
4895;SDS011;2463;49.948;8.472;2024-02-21T14:37:41;88.63;;;4.93;;
4895;SDS011;2463;49.948;8.472;2024-02-21T14:40:08;87.32;;;4.80;;
4895;SDS011;2463;49.948;8.472;2024-02-21T14:42:35;88.18;;;5.07;;
4895;SDS011;2463;49.948;8.472;2024-02-21T14:45:02;88.35;;;5.40;;
4895;SDS011;2463;49.948;8.472;2024-02-21T14:47:32;89.55;;;5.00;;
4895;SDS011;2463;49.948;8.472;2024-02-21T14:50:01;92.63;;;4.93;;
4895;SDS011;2463;49.948;8.472;2024-02-21T14:52:28;89.50;;;5.60;;
4895;SDS011;2463;49.948;8.472;2024-02-21T14:54:55;87.20;;;4.70;;
4895;SDS011;2463;49.948;8.472;2024-02-21T14:57:22;90.60;;;4.70;;
4895;SDS011;2463;49.948;8.472;2024-02-21T14:59:49;89.70;;;5.03;;
4895;SDS011;2463;49.948;8.472;2024-02-21T15:02:19;91.30;;;6.50;;
4895;SDS011;2463;49.948;8.472;2024-02-21T15:04:45;88.95;;;4.80;;
4895;SDS011;2463;49.948;8.472;2024-02-21T15:07:12;92.63;;;5.60;;
4895;SDS011;2463;49.948;8.472;2024-02-21T15:09:39;88.40;;;5.05;;
4895;SDS011;2463;49.948;8.472;2024-02-21T15:12:06;92.45;;;5.90;;
4895;SDS011;2463;49.948;8.472;2024-02-21T15:14:33;89.85;;;5.10;;